EmailTwitter


Observations de surface / France / LFPO (07149)

Régions: Québec | Canada | États-Unis | Europe | France | UK | Ailleurs
Station
Affichage
Infos & localisation pour LFPO (07149) | Aide pour décoder les METARs

Observations prises le 2020-09-25 à 09H30 UTC à PARIS/ORLY, FR (LFPO)

Etat du ciel: partiellement nuageux.

Température: 14.0 Celsius

Point de rosée: 8.0 Celsius

Humidité relative: 67%

Facteur vent: 12.

Vents: Ouest à 28 km/h ou 15 noeuds.

Pression au niveau moyen de la mer: 100.10 kilopascals.

Visibilité horizontale: 6.21 milles terrestres ou 9.94 kilomètres.

Hauteur du plafond: 853 mètres ( 2800 pieds ).

Observation METAR:

LFPO 250930Z 28015KT 240V310 9999 BKN028 FEW030TCU SCT033 14/08 Q1001 TEMPO

4000 SHRA SCT030CB=